createdAt,value
2023-01-05T00:01:04.130Z,10.10
2023-01-05T00:03:31.116Z,10.60
2023-01-05T00:06:05.698Z,11.20
2023-01-05T00:08:37.161Z,9.60
2023-01-05T00:11:26.486Z,11.90
2023-01-05T00:14:11.801Z,9.70
2023-01-05T00:16:57.528Z,8.70
2023-01-05T00:19:43.089Z,10.40
2023-01-05T00:22:31.352Z,9.50
2023-01-05T00:25:17.139Z,9.70
2023-01-05T00:27:48.225Z,9.70
2023-01-05T00:30:18.811Z,9.20
2023-01-05T00:32:45.940Z,10.60
2023-01-05T00:35:13.725Z,12.10
2023-01-05T00:37:40.701Z,10.70
2023-01-05T00:40:08.917Z,11.30
2023-01-05T00:42:35.726Z,9.60
2023-01-05T00:45:04.939Z,10.10
2023-01-05T00:47:31.625Z,10.60
2023-01-05T00:49:58.545Z,9.20
2023-01-05T00:52:25.657Z,11.10
2023-01-05T00:54:52.378Z,9.70
2023-01-05T00:57:19.293Z,11.20
2023-01-05T00:59:46.038Z,11.60
2023-01-05T01:02:14.399Z,11.90
2023-01-05T01:04:43.731Z,11.30
2023-01-05T01:07:10.492Z,9.00
2023-01-05T01:09:42.662Z,10.90
2023-01-05T01:12:09.441Z,11.40
2023-01-05T01:14:36.539Z,11.70
2023-01-05T01:17:03.302Z,8.70
2023-01-05T01:19:30.024Z,11.50
2023-01-05T01:21:56.734Z,9.20
2023-01-05T01:24:24.726Z,10.90
2023-01-05T01:26:51.978Z,9.90
2023-01-05T01:29:19.222Z,11.40
2023-01-05T01:31:49.695Z,10.80
2023-01-05T01:34:16.653Z,10.10
2023-01-05T01:36:43.771Z,12.00
2023-01-05T01:39:10.963Z,9.70
2023-01-05T01:41:37.800Z,11.60
2023-01-05T01:44:24.385Z,11.80
2023-01-05T01:46:51.072Z,10.90
2023-01-05T01:51:47.780Z,10.10
2023-01-05T01:54:15.740Z,11.20
2023-01-05T01:56:45.673Z,10.10
2023-01-05T01:59:16.624Z,11.30
2023-01-05T02:01:43.539Z,10.60
2023-01-05T02:04:11.119Z,12.20
2023-01-05T02:06:38.383Z,10.40
2023-01-05T02:09:06.236Z,11.00
2023-01-05T02:11:32.947Z,9.50
2023-01-05T02:14:11.856Z,9.70
2023-01-05T02:16:57.623Z,10.30
2023-01-05T02:19:43.579Z,10.90
2023-01-05T02:22:21.871Z,10.50
2023-01-05T02:25:00.804Z,10.60
2023-01-05T02:27:31.363Z,10.60
2023-01-05T02:30:12.658Z,10.10
2023-01-05T02:32:51.350Z,10.10
2023-01-05T02:35:33.458Z,10.00
2023-01-05T02:38:07.070Z,9.90
2023-01-05T02:40:36.690Z,9.90
2023-01-05T02:43:04.172Z,10.50
2023-01-05T02:45:30.874Z,10.60
2023-01-05T02:47:57.556Z,11.10
2023-01-05T02:50:27.529Z,11.50
2023-01-05T02:52:55.288Z,9.30
2023-01-05T02:55:24.272Z,9.00
2023-01-05T02:57:53.684Z,9.50
2023-01-05T03:00:24.440Z,11.60
2023-01-05T03:02:57.088Z,10.70
2023-01-05T03:05:27.013Z,10.70
2023-01-05T03:07:54.449Z,9.20
2023-01-05T03:10:40.344Z,9.00
2023-01-05T03:13:27.967Z,11.10
2023-01-05T03:16:02.052Z,8.90
2023-01-05T03:18:30.661Z,9.30
2023-01-05T03:20:58.070Z,9.50
2023-01-05T03:23:43.454Z,10.00
2023-01-05T03:26:29.996Z,9.00
2023-01-05T03:29:19.440Z,9.20
2023-01-05T03:32:06.852Z,8.80
2023-01-05T03:35:05.000Z,9.00
2023-01-05T03:37:34.444Z,9.90
2023-01-05T03:40:02.689Z,9.80
2023-01-05T03:42:30.343Z,9.20
2023-01-05T03:44:58.309Z,9.90
2023-01-05T03:47:24.999Z,11.40
2023-01-05T03:49:51.937Z,10.50
2023-01-05T03:52:18.624Z,11.10
2023-01-05T03:54:45.265Z,9.00
2023-01-05T03:57:12.059Z,10.40
2023-01-05T03:59:38.753Z,11.00
2023-01-05T04:02:05.656Z,11.50
2023-01-05T04:04:32.415Z,8.70
2023-01-05T04:06:59.113Z,11.20
2023-01-05T04:09:28.263Z,11.30
2023-01-05T04:11:54.942Z,9.20
2023-01-05T04:14:21.687Z,10.80
2023-01-05T04:16:56.149Z,10.40
2023-01-05T04:19:22.856Z,9.80
2023-01-05T04:21:49.550Z,9.60
2023-01-05T04:24:16.237Z,10.80
2023-01-05T04:26:43.203Z,10.70
2023-01-05T04:29:10.589Z,9.20
2023-01-05T04:31:37.808Z,10.30
2023-01-05T04:34:04.548Z,10.10
2023-01-05T04:36:31.311Z,10.90
2023-01-05T04:38:58.053Z,12.10
2023-01-05T04:41:24.822Z,10.80
2023-01-05T04:43:51.539Z,10.50
2023-01-05T04:46:18.247Z,11.40
2023-01-05T04:48:47.525Z,11.00
2023-01-05T04:51:14.265Z,11.60
2023-01-05T04:53:40.946Z,8.90
2023-01-05T04:56:07.758Z,11.30
2023-01-05T04:58:34.545Z,9.60
2023-01-05T05:01:01.260Z,11.80
2023-01-05T05:03:32.758Z,10.80
2023-01-05T05:06:00.003Z,8.80
2023-01-05T05:08:26.994Z,9.80
2023-01-05T05:10:53.651Z,11.20
2023-01-05T05:13:20.303Z,11.00
2023-01-05T05:15:47.084Z,10.60
2023-01-05T05:18:13.803Z,11.10
2023-01-05T05:20:41.529Z,8.90
2023-01-05T05:23:08.272Z,10.10
2023-01-05T05:25:35.023Z,11.40
2023-01-05T05:28:01.725Z,8.30
2023-01-05T05:30:28.467Z,10.90
2023-01-05T05:32:55.157Z,8.80
2023-01-05T05:35:22.079Z,10.70
2023-01-05T05:37:54.435Z,10.40
2023-01-05T05:40:29.455Z,10.00
2023-01-05T05:42:56.276Z,10.40
2023-01-05T05:45:23.029Z,9.80
2023-01-05T05:47:49.743Z,10.20
2023-01-05T05:50:16.490Z,7.90
2023-01-05T05:52:46.036Z,8.50
2023-01-05T05:55:12.893Z,7.90
2023-01-05T05:57:42.617Z,9.60
2023-01-05T06:00:09.685Z,9.70
2023-01-05T06:02:36.452Z,8.60
2023-01-05T06:05:03.328Z,9.50
2023-01-05T06:07:30.078Z,8.70
2023-01-05T06:09:56.779Z,8.20
2023-01-05T06:12:23.463Z,7.80
2023-01-05T06:14:50.151Z,9.80
2023-01-05T06:17:16.856Z,8.10
2023-01-05T06:19:43.525Z,10.00
2023-01-05T06:22:10.173Z,10.40
2023-01-05T06:24:39.843Z,8.20
2023-01-05T06:27:06.526Z,10.00
2023-01-05T06:29:33.226Z,7.80
2023-01-05T06:31:59.925Z,7.80
2023-01-05T06:34:26.676Z,10.30
2023-01-05T06:36:57.846Z,10.20
2023-01-05T06:39:27.349Z,8.20
2023-01-05T06:41:54.057Z,8.30
2023-01-05T06:44:20.752Z,10.50
2023-01-05T06:46:47.469Z,8.20
2023-01-05T06:49:14.885Z,10.40
2023-01-05T06:51:41.583Z,9.00
2023-01-05T06:54:08.319Z,8.60
2023-01-05T06:56:35.054Z,8.40
2023-01-05T06:59:01.817Z,8.30
2023-01-05T07:01:28.695Z,8.50
2023-01-05T07:03:55.799Z,10.80
2023-01-05T07:06:22.633Z,10.60
2023-01-05T07:08:49.466Z,10.90
2023-01-05T07:11:16.206Z,8.50
2023-01-05T07:13:49.353Z,10.50
2023-01-05T07:16:16.533Z,8.60
2023-01-05T07:18:43.306Z,8.60
2023-01-05T07:21:10.032Z,8.50
2023-01-05T07:23:39.677Z,10.60
2023-01-05T07:26:07.493Z,10.20
2023-01-05T07:28:34.534Z,9.90
2023-01-05T07:31:01.267Z,11.00
2023-01-05T07:33:34.640Z,10.40
2023-01-05T07:36:07.284Z,10.80
2023-01-05T07:38:34.047Z,9.80
2023-01-05T07:41:01.268Z,9.20
2023-01-05T07:43:28.105Z,10.80
2023-01-05T07:45:58.730Z,10.40
2023-01-05T07:48:25.857Z,9.10
2023-01-05T07:50:53.178Z,9.80
2023-01-05T07:53:19.866Z,11.20
2023-01-05T07:55:55.249Z,8.40
2023-01-05T07:58:21.936Z,10.00
2023-01-05T08:00:48.745Z,11.00
2023-01-05T08:03:15.779Z,11.10
2023-01-05T08:05:51.683Z,8.80
2023-01-05T08:08:24.131Z,9.10
2023-01-05T08:10:53.401Z,8.30
2023-01-05T08:13:42.170Z,8.40
2023-01-05T08:16:08.938Z,8.40
2023-01-05T08:18:35.600Z,10.20
2023-01-05T08:21:06.141Z,8.50
2023-01-05T08:23:33.309Z,9.40
2023-01-05T08:26:04.524Z,9.40
2023-01-05T08:28:35.345Z,10.20
2023-01-05T08:31:03.757Z,10.20
2023-01-05T08:33:30.417Z,10.20
2023-01-05T08:35:57.156Z,8.20
2023-01-05T08:38:24.416Z,11.00
2023-01-05T08:40:51.288Z,8.30
2023-01-05T08:43:17.975Z,8.30
2023-01-05T08:45:48.440Z,10.50
2023-01-05T08:48:15.480Z,10.10
2023-01-05T08:50:42.223Z,10.70
2023-01-05T08:53:08.929Z,8.50
2023-01-05T08:55:35.685Z,8.70
2023-01-05T08:58:02.393Z,9.00
2023-01-05T09:00:29.102Z,9.20
2023-01-05T09:02:55.907Z,11.80
2023-01-05T09:05:22.697Z,8.70
2023-01-05T09:07:50.397Z,8.40
2023-01-05T09:10:17.076Z,11.10
2023-01-05T09:12:43.785Z,8.60
2023-01-05T09:15:10.655Z,10.30
2023-01-05T09:17:38.419Z,9.20
2023-01-05T09:20:05.651Z,9.30
2023-01-05T09:22:32.650Z,9.80
2023-01-05T09:24:59.334Z,10.60
2023-01-05T09:27:26.028Z,11.80
2023-01-05T09:29:52.681Z,9.60
2023-01-05T09:32:19.583Z,11.40
2023-01-05T09:34:46.359Z,10.10
2023-01-05T09:37:13.054Z,11.00
2023-01-05T09:39:39.797Z,11.40
2023-01-05T09:42:07.470Z,10.70
2023-01-05T09:44:37.728Z,9.50
2023-01-05T09:47:06.545Z,11.20
2023-01-05T09:49:34.177Z,9.70
2023-01-05T09:52:02.139Z,11.40
2023-01-05T09:54:30.214Z,9.00
2023-01-05T09:57:13.174Z,10.40
2023-01-05T10:00:03.665Z,11.10
2023-01-05T10:02:46.797Z,9.60
2023-01-05T10:05:14.173Z,9.70
2023-01-05T10:07:43.209Z,11.00
2023-01-05T10:10:18.583Z,12.20
2023-01-05T10:13:03.278Z,10.70
2023-01-05T10:15:36.328Z,10.70
2023-01-05T10:18:09.186Z,10.70
2023-01-05T10:20:43.605Z,11.60
2023-01-05T10:23:29.064Z,10.90
2023-01-05T10:26:02.440Z,10.90
2023-01-05T10:28:29.054Z,10.80
2023-01-05T10:31:00.516Z,12.10
2023-01-05T10:33:41.637Z,10.70
2023-01-05T10:39:44.053Z,10.80
2023-01-05T10:42:18.302Z,10.90
2023-01-05T10:44:51.671Z,10.20
2023-01-05T10:47:20.047Z,11.80
2023-01-05T10:49:47.170Z,10.20
2023-01-05T10:52:21.512Z,9.70
2023-01-05T10:54:50.138Z,10.50
2023-01-05T11:02:12.359Z,10.80
2023-01-05T11:04:39.351Z,10.70
2023-01-05T11:07:06.608Z,10.70
2023-01-05T11:12:02.539Z,11.50
2023-01-05T11:14:31.003Z,11.50
2023-01-05T11:17:03.970Z,11.20
2023-01-05T11:19:32.684Z,11.50
2023-01-05T11:22:02.150Z,11.50
2023-01-05T11:24:33.948Z,12.20
2023-01-05T11:27:03.145Z,11.50
2023-01-05T11:29:30.393Z,11.50
2023-01-05T11:32:00.120Z,11.50
2023-01-05T11:34:33.620Z,11.10
2023-01-05T11:37:05.780Z,10.90
2023-01-05T11:39:40.009Z,11.20
2023-01-05T11:42:26.355Z,11.60
2023-01-05T11:44:55.253Z,10.70
2023-01-05T11:47:23.928Z,11.50
2023-01-05T11:49:58.715Z,10.70
2023-01-05T11:52:27.459Z,10.60
2023-01-05T11:54:54.354Z,11.40
2023-01-05T11:57:22.530Z,11.50
2023-01-05T11:59:51.061Z,10.70
2023-01-05T12:02:20.906Z,12.00
2023-01-05T12:05:08.650Z,11.20
2023-01-05T12:07:37.014Z,11.30
2023-01-05T12:10:09.739Z,11.80
2023-01-05T12:12:36.338Z,11.20
2023-01-05T12:15:16.966Z,11.10
2023-01-05T12:18:05.027Z,11.20
2023-01-05T12:20:34.765Z,11.20
2023-01-05T12:23:10.208Z,12.80
2023-01-05T13:00:00.949Z,11.20
2023-01-05T13:02:27.774Z,10.60
2023-01-05T13:04:57.210Z,12.20
2023-01-05T13:17:26.842Z,16.50
2023-01-05T13:24:55.838Z,15.70
2023-01-05T13:27:22.548Z,16.70
2023-01-05T13:29:50.797Z,16.00
2023-01-05T13:35:00.855Z,16.40
2023-01-05T13:40:13.277Z,16.40
2023-01-05T13:45:07.141Z,16.90
2023-01-05T13:50:07.329Z,16.30
2023-01-05T13:52:52.377Z,16.00
2023-01-05T13:57:55.678Z,16.90
2023-01-05T14:00:35.617Z,16.70
2023-01-05T14:03:07.803Z,15.50
2023-01-05T14:05:46.579Z,13.30
2023-01-05T14:20:30.679Z,11.10
2023-01-05T14:22:57.726Z,11.20
2023-01-05T14:25:40.015Z,12.00
2023-01-05T14:28:17.814Z,10.90
2023-01-05T14:30:44.477Z,10.90
2023-01-05T14:33:11.419Z,10.60
2023-01-05T14:35:38.146Z,11.90
2023-01-05T14:38:16.291Z,10.40
2023-01-05T14:40:45.636Z,10.60
2023-01-05T14:45:40.334Z,10.70
2023-01-05T14:48:08.921Z,10.20
2023-01-05T14:53:35.159Z,10.40
2023-01-05T14:56:01.807Z,10.20
2023-01-05T14:58:41.356Z,10.10
2023-01-05T15:01:17.655Z,9.90
2023-01-05T15:04:03.350Z,9.80
2023-01-05T15:06:30.052Z,9.80
2023-01-05T15:09:16.289Z,10.90
2023-01-05T15:11:45.939Z,9.70
2023-01-05T15:14:37.432Z,9.70
2023-01-05T15:17:10.410Z,9.70
2023-01-05T15:19:48.304Z,9.50
2023-01-05T15:22:37.757Z,9.50
2023-01-05T15:25:11.507Z,9.50
2023-01-05T15:27:51.789Z,10.10
2023-01-05T15:30:28.045Z,9.30
2023-01-05T15:33:07.591Z,9.50
2023-01-05T15:35:42.144Z,9.20
2023-01-05T15:38:21.199Z,9.20
2023-01-05T15:40:48.417Z,9.10
2023-01-05T15:43:16.440Z,8.70
2023-01-05T15:45:49.847Z,9.10
2023-01-05T15:48:20.632Z,10.20
2023-01-05T15:50:49.335Z,9.20
2023-01-05T15:53:25.529Z,9.90
2023-01-05T15:58:20.622Z,9.00
2023-01-05T16:01:23.047Z,8.70
2023-01-05T16:03:50.453Z,8.80
2023-01-05T16:06:24.543Z,8.60
2023-01-05T16:08:52.620Z,8.80
2023-01-05T16:11:25.578Z,8.60
2023-01-05T16:14:00.175Z,9.60
2023-01-05T16:16:51.311Z,9.00
2023-01-05T16:19:39.583Z,10.00
2023-01-05T16:22:11.327Z,9.10
2023-01-05T16:24:54.109Z,9.20
2023-01-05T16:27:21.089Z,9.10
2023-01-05T16:29:48.455Z,9.40
2023-01-05T16:32:36.210Z,9.20
2023-01-05T16:35:21.704Z,9.20
2023-01-05T16:38:03.693Z,9.20
2023-01-05T16:40:30.699Z,9.20
2023-01-05T16:42:57.408Z,9.50
2023-01-05T16:45:25.871Z,9.10
2023-01-05T16:47:53.383Z,9.30
2023-01-05T16:50:20.072Z,10.10
2023-01-05T16:53:05.595Z,9.80
2023-01-05T16:55:33.242Z,9.00
2023-01-05T16:58:00.783Z,8.70
2023-01-05T17:00:31.464Z,8.90
2023-01-05T17:03:01.127Z,8.90
2023-01-05T17:05:29.412Z,8.40
2023-01-05T17:07:56.031Z,8.60
2023-01-05T17:12:54.749Z,8.40
2023-01-05T17:15:23.882Z,8.60
2023-01-05T17:17:50.994Z,7.90
2023-01-05T17:20:17.708Z,7.50
2023-01-05T17:22:44.438Z,8.10
2023-01-05T17:25:12.711Z,9.00
2023-01-05T17:27:39.723Z,8.00
2023-01-05T17:30:12.500Z,7.80
2023-01-05T17:32:39.135Z,7.90
2023-01-05T17:37:33.596Z,7.70
2023-01-05T17:40:00.202Z,7.20
2023-01-05T17:42:45.272Z,7.60
2023-01-05T17:45:19.845Z,7.60
2023-01-05T17:47:47.391Z,7.70
2023-01-05T17:50:15.685Z,7.90
2023-01-05T17:52:42.391Z,7.60
2023-01-05T17:55:09.576Z,7.80
2023-01-05T17:57:36.379Z,7.80
2023-01-05T18:00:05.660Z,7.70
2023-01-05T18:02:32.755Z,8.00
2023-01-05T18:04:59.723Z,8.90
2023-01-05T18:07:26.394Z,7.70
2023-01-05T18:09:53.156Z,7.70
2023-01-05T18:12:19.919Z,8.10
2023-01-05T18:14:46.589Z,7.70
2023-01-05T18:17:15.550Z,7.80
2023-01-05T18:22:09.556Z,7.70
2023-01-05T18:24:36.521Z,7.70
2023-01-05T18:27:07.023Z,7.40
2023-01-05T18:29:34.263Z,7.40
2023-01-05T18:32:01.281Z,7.90
2023-01-05T18:34:28.042Z,7.60
2023-01-05T18:37:01.825Z,7.40
2023-01-05T18:39:32.798Z,7.50
2023-01-05T18:41:59.520Z,7.60
2023-01-05T18:44:26.191Z,7.50
2023-01-05T18:46:52.930Z,7.00
2023-01-05T18:49:19.593Z,6.70
2023-01-05T18:51:46.250Z,6.50
2023-01-05T18:54:12.959Z,6.50
2023-01-05T18:56:39.667Z,5.90
2023-01-05T18:59:06.452Z,5.60
2023-01-05T19:01:35.733Z,5.60
2023-01-05T19:06:29.524Z,6.50
2023-01-05T19:08:57.212Z,6.20
2023-01-05T19:11:25.308Z,6.10
2023-01-05T19:13:53.865Z,6.30
2023-01-05T19:16:21.729Z,6.20
2023-01-05T19:18:49.844Z,6.30
2023-01-05T19:21:17.002Z,7.90
2023-01-05T19:23:43.646Z,8.30
2023-01-05T19:26:10.435Z,5.60
2023-01-05T19:28:37.568Z,6.10
2023-01-05T19:31:08.166Z,6.10
2023-01-05T19:33:35.435Z,6.30
2023-01-05T19:36:06.742Z,5.90
2023-01-05T19:38:33.761Z,6.60
2023-01-05T19:41:04.771Z,6.00
2023-01-05T19:43:31.579Z,6.60
2023-01-05T19:45:59.273Z,6.20
2023-01-05T19:48:26.089Z,6.10
2023-01-05T19:51:03.279Z,6.00
2023-01-05T19:58:29.959Z,5.90
2023-01-05T20:00:58.142Z,7.20
2023-01-05T20:05:51.826Z,6.00
2023-01-05T20:08:18.493Z,5.70
2023-01-05T20:10:45.128Z,4.90
2023-01-05T20:13:11.840Z,5.50
2023-01-05T20:15:38.516Z,5.30
2023-01-05T20:18:05.350Z,5.50
2023-01-05T20:20:32.171Z,5.70
2023-01-05T20:22:58.849Z,7.20
2023-01-05T20:25:25.499Z,5.30
2023-01-05T20:27:52.191Z,5.80
2023-01-05T20:30:18.897Z,5.80
2023-01-05T20:32:45.612Z,6.10
2023-01-05T20:35:13.107Z,5.40
2023-01-05T20:37:40.075Z,7.00
2023-01-05T20:40:07.115Z,5.60
2023-01-05T20:42:33.985Z,6.10
2023-01-05T20:45:02.973Z,6.10
2023-01-05T20:47:31.781Z,6.40
2023-01-05T20:50:03.291Z,5.70
2023-01-05T20:52:29.939Z,6.10
2023-01-05T20:54:57.539Z,5.20
2023-01-05T20:57:24.275Z,6.90
2023-01-05T20:59:50.977Z,5.60
2023-01-05T21:02:24.073Z,6.20
2023-01-05T21:04:52.188Z,5.80
2023-01-05T21:07:20.266Z,6.90
2023-01-05T21:09:47.105Z,6.10
2023-01-05T21:12:13.756Z,6.40
2023-01-05T21:14:40.478Z,6.30
2023-01-05T21:17:07.577Z,6.20
2023-01-05T21:19:34.291Z,5.70
2023-01-05T21:22:00.982Z,5.80
2023-01-05T21:24:27.741Z,5.80
2023-01-05T21:26:54.654Z,8.10
2023-01-05T21:29:23.247Z,6.00
2023-01-05T21:31:50.320Z,5.90
2023-01-05T21:34:17.306Z,5.90
2023-01-05T21:36:45.799Z,5.70
2023-01-05T21:39:21.528Z,7.30
2023-01-05T21:42:07.405Z,6.10
2023-01-05T21:44:34.153Z,5.90
2023-01-05T21:47:00.903Z,5.90
2023-01-05T21:49:27.747Z,5.80
2023-01-05T21:52:13.078Z,7.70
2023-01-05T21:54:58.362Z,5.80
2023-01-05T21:57:25.323Z,6.60
2023-01-05T21:59:52.077Z,5.70
2023-01-05T22:02:18.739Z,5.70
2023-01-05T22:04:45.474Z,6.00
2023-01-05T22:07:12.406Z,6.10
2023-01-05T22:09:39.164Z,5.90
2023-01-05T22:12:09.400Z,7.70
2023-01-05T22:14:36.986Z,6.30
2023-01-05T22:17:04.377Z,6.00
2023-01-05T22:19:31.091Z,5.50
2023-01-05T22:21:57.838Z,5.60
2023-01-05T22:24:24.523Z,5.60
2023-01-05T22:26:51.118Z,7.40
2023-01-05T22:29:19.164Z,6.10
2023-01-05T22:31:45.994Z,6.10
2023-01-05T22:34:12.714Z,5.90
2023-01-05T22:36:39.451Z,6.00
2023-01-05T22:39:06.137Z,7.50
2023-01-05T22:44:02.243Z,6.90
2023-01-05T22:46:29.546Z,6.80
2023-01-05T22:48:56.728Z,6.40
2023-01-05T22:51:27.918Z,6.60
2023-01-05T22:53:54.679Z,7.00
2023-01-05T22:56:22.097Z,6.20
2023-01-05T22:58:48.935Z,8.20
2023-01-05T23:01:21.257Z,6.10
2023-01-05T23:03:48.039Z,7.00
2023-01-05T23:06:14.714Z,6.20
2023-01-05T23:08:41.778Z,6.30
2023-01-05T23:11:09.765Z,8.80
2023-01-05T23:13:36.806Z,9.70
2023-01-05T23:16:04.093Z,9.20
2023-01-05T23:18:31.343Z,7.10
2023-01-05T23:21:00.107Z,6.10
2023-01-05T23:23:27.106Z,6.40
2023-01-05T23:25:53.753Z,6.30
2023-01-05T23:28:21.573Z,8.70
2023-01-05T23:30:49.267Z,8.60
2023-01-05T23:33:16.681Z,8.30
2023-01-05T23:35:43.719Z,6.50
2023-01-05T23:38:10.557Z,6.60
2023-01-05T23:40:44.302Z,8.60
2023-01-05T23:43:11.510Z,7.10
2023-01-05T23:45:38.740Z,6.90
2023-01-05T23:48:05.657Z,6.70
2023-01-05T23:50:33.816Z,7.30
2023-01-05T23:53:01.153Z,6.90
2023-01-05T23:55:27.979Z,6.30
2023-01-05T23:57:55.098Z,6.50
